createdAt,value
2023-02-11T00:00:24.177Z,63.41
2023-02-11T00:05:26.830Z,63.64
2023-02-11T00:10:29.640Z,63.19
2023-02-11T00:15:32.294Z,63.22
2023-02-11T00:20:34.796Z,63.67
2023-02-11T00:25:45.377Z,63.79
2023-02-11T00:30:58.440Z,64.05
2023-02-11T00:36:09.381Z,63.76
2023-02-11T00:41:13.624Z,63.75
2023-02-11T00:46:16.993Z,64.38
2023-02-11T00:51:19.701Z,64.29
2023-02-11T00:56:22.560Z,63.97
2023-02-11T01:01:25.504Z,64.04
2023-02-11T01:06:28.296Z,64.40
2023-02-11T01:11:30.933Z,65.12
2023-02-11T01:16:33.548Z,64.61
2023-02-11T01:21:36.239Z,65.09
2023-02-11T01:26:38.861Z,64.81
2023-02-11T01:31:41.447Z,64.68
2023-02-11T01:36:43.978Z,65.29
2023-02-11T01:41:46.762Z,65.72
2023-02-11T01:46:49.616Z,65.17
2023-02-11T01:52:10.578Z,66.13
2023-02-11T01:57:23.032Z,65.73
2023-02-11T02:02:40.854Z,65.63
2023-02-11T02:07:51.573Z,66.07
2023-02-11T02:12:55.036Z,65.93
2023-02-11T02:18:30.718Z,66.55
2023-02-11T02:24:04.574Z,66.38
2023-02-11T02:29:49.010Z,65.90
2023-02-11T02:35:02.403Z,66.72
2023-02-11T02:40:13.143Z,66.16
2023-02-11T02:45:17.055Z,66.02
2023-02-11T02:50:25.449Z,66.74
2023-02-11T02:55:49.751Z,66.52
2023-02-11T03:01:50.394Z,65.96
2023-02-11T03:07:14.315Z,66.21
2023-02-11T03:12:17.960Z,66.18
2023-02-11T03:17:24.308Z,65.98
2023-02-11T03:22:43.116Z,66.45
2023-02-11T03:28:14.061Z,66.08
2023-02-11T03:33:34.995Z,65.83
2023-02-11T03:38:44.027Z,64.85
2023-02-11T03:43:50.894Z,64.82
2023-02-11T03:48:58.975Z,64.77
2023-02-11T03:54:05.157Z,64.92
2023-02-11T03:59:09.537Z,64.28
2023-02-11T04:04:12.325Z,64.59
2023-02-11T04:09:15.519Z,64.78
2023-02-11T04:14:18.096Z,64.58
2023-02-11T04:19:21.062Z,64.55
2023-02-11T04:24:24.005Z,64.21
2023-02-11T04:29:27.161Z,64.16
2023-02-11T04:34:29.965Z,63.18
2023-02-11T04:39:32.719Z,62.91
2023-02-11T04:44:35.289Z,60.12
2023-02-11T04:49:37.750Z,58.00
2023-02-11T04:54:40.877Z,56.49
2023-02-11T04:59:43.524Z,54.73
2023-02-11T05:04:46.416Z,54.06
2023-02-11T05:09:49.256Z,51.95
2023-02-11T05:14:51.898Z,51.97
2023-02-11T05:19:54.567Z,50.02
2023-02-11T05:24:57.023Z,48.25
2023-02-11T05:29:59.529Z,47.23
2023-02-11T05:35:02.251Z,45.75
2023-02-11T05:40:06.391Z,44.97
2023-02-11T05:45:09.708Z,44.12
2023-02-11T05:50:12.983Z,43.04
2023-02-11T05:55:16.137Z,42.14
2023-02-11T06:00:19.327Z,40.84
2023-02-11T06:05:22.075Z,39.88
2023-02-11T06:10:24.580Z,39.96
2023-02-11T06:15:27.482Z,39.04
2023-02-11T06:20:30.278Z,38.77
2023-02-11T06:25:33.240Z,37.87
2023-02-11T06:30:37.481Z,37.36
2023-02-11T06:35:40.596Z,37.49
2023-02-11T06:40:48.506Z,36.23
2023-02-11T06:45:56.092Z,36.23
2023-02-11T06:51:04.075Z,36.00
2023-02-11T06:56:09.129Z,36.30
2023-02-11T07:01:14.504Z,35.81
2023-02-11T07:06:19.296Z,34.65
2023-02-11T07:11:28.689Z,34.36
2023-02-11T07:16:32.728Z,34.21
2023-02-11T07:21:35.817Z,34.77
2023-02-11T07:26:38.857Z,33.90
2023-02-11T07:31:44.392Z,33.43
2023-02-11T07:36:49.185Z,34.06
2023-02-11T07:41:52.009Z,33.25
2023-02-11T07:46:55.233Z,33.10
2023-02-11T07:51:58.108Z,33.27
2023-02-11T07:57:00.941Z,33.65
2023-02-11T08:02:03.989Z,32.82
2023-02-11T08:07:07.166Z,32.20
2023-02-11T08:12:10.207Z,31.68
2023-02-11T08:17:12.847Z,31.56
2023-02-11T08:22:15.537Z,31.37
2023-02-11T08:27:18.194Z,31.05
2023-02-11T08:32:21.590Z,30.49
2023-02-11T08:37:24.387Z,29.97
2023-02-11T08:42:27.124Z,29.96
2023-02-11T08:47:32.697Z,30.25
2023-02-11T08:52:36.968Z,29.62
2023-02-11T08:57:42.842Z,28.69
2023-02-11T09:02:45.952Z,28.28
2023-02-11T09:07:49.144Z,28.84
2023-02-11T09:12:51.876Z,28.21
2023-02-11T09:17:54.603Z,27.52
2023-02-11T09:22:58.889Z,27.42
2023-02-11T09:28:05.226Z,26.97
2023-02-11T09:33:10.730Z,27.08
2023-02-11T09:38:13.577Z,27.06
2023-02-11T09:43:23.449Z,27.79
2023-02-11T09:48:27.008Z,27.18
2023-02-11T09:53:36.577Z,27.56
2023-02-11T09:58:41.798Z,27.28
2023-02-11T10:04:13.323Z,27.17
2023-02-11T10:09:46.103Z,27.62
2023-02-11T10:15:13.923Z,27.50
2023-02-11T10:20:43.789Z,27.45
2023-02-11T10:25:51.079Z,27.62
2023-02-11T10:31:06.797Z,27.37
2023-02-11T10:36:16.637Z,27.60
2023-02-11T10:41:31.381Z,27.52
2023-02-11T10:46:37.234Z,27.25
2023-02-11T10:51:39.946Z,28.34
2023-02-11T10:56:55.147Z,28.45
2023-02-11T11:02:01.368Z,27.91
2023-02-11T11:07:20.762Z,27.82
2023-02-11T11:12:33.770Z,28.10
2023-02-11T11:17:39.297Z,28.32
2023-02-11T11:22:43.861Z,27.83
2023-02-11T11:27:51.070Z,27.78
2023-02-11T11:32:54.245Z,28.70
2023-02-11T11:38:03.538Z,28.68
2023-02-11T11:43:15.252Z,28.93
2023-02-11T11:48:47.306Z,29.51
2023-02-11T11:54:01.800Z,28.94
2023-02-11T11:59:17.741Z,29.15
2023-02-11T12:04:42.420Z,29.79
2023-02-11T12:10:13.121Z,30.05
2023-02-11T12:15:32.608Z,30.51
2023-02-11T12:21:03.136Z,30.95
2023-02-11T12:26:29.705Z,30.84
2023-02-11T12:31:56.297Z,31.85
2023-02-11T12:37:10.497Z,32.40
2023-02-11T12:42:34.764Z,32.73
2023-02-11T12:47:50.496Z,32.95
2023-02-11T12:53:06.135Z,33.68
2023-02-11T12:58:18.709Z,34.30
2023-02-11T13:03:29.282Z,35.47
2023-02-11T13:08:38.051Z,35.89
2023-02-11T13:13:52.799Z,36.35
2023-02-11T13:19:11.684Z,37.19
2023-02-11T13:24:50.871Z,38.30
2023-02-11T13:29:58.608Z,39.85
2023-02-11T13:35:01.377Z,40.85
2023-02-11T13:40:22.392Z,42.24
2023-02-11T13:45:37.355Z,42.85
2023-02-11T13:50:51.110Z,44.44
2023-02-11T13:56:10.209Z,45.35
2023-02-11T14:01:42.770Z,46.54
2023-02-11T14:07:47.444Z,47.70
2023-02-11T14:13:17.039Z,48.48
2023-02-11T14:18:53.567Z,49.67
2023-02-11T14:24:02.183Z,50.53
2023-02-11T14:29:28.216Z,51.02
2023-02-11T14:34:56.794Z,52.10
2023-02-11T14:40:12.543Z,53.56
2023-02-11T14:45:37.447Z,54.37
2023-02-11T14:50:51.750Z,55.00
2023-02-11T14:55:56.681Z,55.28
2023-02-11T15:01:01.636Z,55.83
2023-02-11T15:06:23.538Z,56.53
2023-02-11T15:11:26.438Z,56.74
2023-02-11T15:16:29.650Z,56.92
2023-02-11T15:21:36.330Z,57.53
2023-02-11T15:26:39.233Z,57.84
2023-02-11T15:31:42.012Z,58.16
2023-02-11T15:36:44.878Z,58.38
2023-02-11T15:41:47.545Z,58.55
2023-02-11T15:46:50.416Z,58.80
2023-02-11T15:51:57.206Z,59.07
2023-02-11T15:57:04.358Z,59.33
2023-02-11T16:02:20.544Z,59.63
2023-02-11T16:07:48.120Z,59.76
2023-02-11T16:12:54.735Z,59.54
2023-02-11T16:17:58.397Z,60.09
2023-02-11T16:23:03.336Z,60.90
2023-02-11T16:28:06.080Z,60.44
2023-02-11T16:33:11.467Z,60.89
2023-02-11T16:38:14.157Z,61.16
2023-02-11T16:43:20.537Z,61.42
2023-02-11T16:48:23.559Z,61.32
2023-02-11T16:53:26.703Z,61.58
2023-02-11T16:58:29.495Z,61.54
2023-02-11T17:03:36.484Z,61.98
2023-02-11T17:08:39.758Z,62.46
2023-02-11T17:13:43.643Z,62.47
2023-02-11T17:18:47.061Z,62.72
2023-02-11T17:23:49.997Z,63.45
2023-02-11T17:28:52.944Z,63.49
2023-02-11T17:33:56.109Z,63.13
2023-02-11T17:38:59.253Z,63.65
2023-02-11T17:44:02.945Z,63.27
2023-02-11T17:49:05.517Z,63.50
2023-02-11T17:54:14.722Z,63.53
2023-02-11T17:59:17.523Z,63.93
2023-02-11T18:04:21.742Z,64.21
2023-02-11T18:09:26.186Z,64.03
2023-02-11T18:14:28.973Z,63.53
2023-02-11T18:19:33.306Z,63.81
2023-02-11T18:24:36.074Z,63.30
2023-02-11T18:29:38.711Z,63.90
2023-02-11T18:34:42.082Z,63.95
2023-02-11T18:39:44.772Z,64.00
2023-02-11T18:44:47.682Z,64.06
2023-02-11T18:49:50.889Z,63.75
2023-02-11T18:54:53.619Z,64.14
2023-02-11T18:59:56.419Z,64.54
2023-02-11T19:04:59.506Z,64.59
2023-02-11T19:10:02.552Z,65.13
2023-02-11T19:15:08.090Z,64.91
2023-02-11T19:20:11.089Z,65.55
2023-02-11T19:25:13.995Z,65.92
2023-02-11T19:30:16.894Z,66.31
2023-02-11T19:35:20.402Z,65.33
2023-02-11T19:40:23.781Z,65.59
2023-02-11T19:45:27.406Z,65.88
2023-02-11T19:50:30.870Z,65.36
2023-02-11T19:55:35.496Z,65.61
2023-02-11T20:00:38.711Z,66.17
2023-02-11T20:05:43.840Z,66.05
2023-02-11T20:10:47.289Z,65.83
2023-02-11T20:15:50.253Z,64.92
2023-02-11T20:20:53.493Z,65.60
2023-02-11T20:25:56.468Z,65.64
2023-02-11T20:31:00.068Z,65.33
2023-02-11T20:36:07.952Z,65.36
2023-02-11T20:41:16.809Z,66.17
2023-02-11T20:46:23.456Z,65.63
2023-02-11T20:51:29.279Z,65.57
2023-02-11T20:56:48.884Z,66.35
2023-02-11T21:01:55.569Z,66.12
2023-02-11T21:07:02.516Z,65.69
2023-02-11T21:12:06.616Z,65.53
2023-02-11T21:17:09.467Z,65.10
2023-02-11T21:22:12.298Z,64.81
2023-02-11T21:27:15.024Z,65.26
2023-02-11T21:32:17.926Z,65.35
2023-02-11T21:37:21.385Z,65.78
2023-02-11T21:42:24.371Z,65.94
2023-02-11T21:47:27.589Z,66.01
2023-02-11T21:52:30.502Z,65.53
2023-02-11T21:57:33.006Z,65.98
2023-02-11T22:02:37.646Z,65.53
2023-02-11T22:07:40.262Z,65.50
2023-02-11T22:12:43.105Z,65.89
2023-02-11T22:17:45.770Z,64.83
2023-02-11T22:22:48.437Z,65.46
2023-02-11T22:27:51.225Z,65.25
2023-02-11T22:32:53.863Z,65.83
2023-02-11T22:37:56.391Z,65.38
2023-02-11T22:42:59.233Z,65.32
2023-02-11T22:48:01.991Z,65.46
2023-02-11T22:53:04.729Z,65.44
2023-02-11T22:58:07.644Z,64.98
2023-02-11T23:03:12.052Z,65.89
2023-02-11T23:08:14.644Z,65.67
2023-02-11T23:13:17.588Z,66.02
2023-02-11T23:18:20.451Z,66.13
2023-02-11T23:23:23.229Z,65.33
2023-02-11T23:28:25.899Z,66.14
2023-02-11T23:33:28.496Z,66.14
2023-02-11T23:38:31.514Z,65.35
2023-02-11T23:43:34.271Z,65.80
2023-02-11T23:48:37.964Z,64.91
2023-02-11T23:53:41.033Z,65.55
2023-02-11T23:58:45.102Z,64.77
